EZY3924 LKPR-EDDH
Flight info
| Callsign | EZY3924 |
|---|---|
| Flight time | 1h 2m |
| Altitude | 34000 |
| Route | VENOX DCT DEKOV Y621 ESLOR M748 RARUP RARUP6A |
| Aircraft | A320/M-SDE3FGHIRWY/LB1 |
Departure
| Time | 2026-05-06 18:48 |
|---|---|
| Airport | Václav Havel Airport Prague (LKPR) |
Arrival
| Time | 2026-05-06 19:50 |
|---|---|
| Airport | Hamburg Helmut Schmidt Airport (EDDH) |
| Time | Latitude | Longitude | Altitude | Speed | Heading |
|---|---|---|---|---|---|
| 2026-05-06 18:08 | 50.10485 | 14.26480 | 1171 ft | 0 kts | 34° |
| 2026-05-06 18:25 | 50.10484 | 14.26480 | 1174 ft | 1 kts | 34° |
| 2026-05-06 18:25 | 50.10465 | 14.26459 | 1172 ft | 4 kts | 31° |
| 2026-05-06 18:25 | 50.10447 | 14.26446 | 1169 ft | 4 kts | 321° |
| 2026-05-06 18:25 | 50.10433 | 14.26474 | 1169 ft | 4 kts | 304° |
| 2026-05-06 18:26 | 50.10423 | 14.26498 | 1171 ft | 0 kts | 304° |
| 2026-05-06 18:32 | 50.10436 | 14.26469 | 1169 ft | 6 kts | 304° |
| 2026-05-06 18:32 | 50.10467 | 14.26399 | 1172 ft | 10 kts | 304° |
| 2026-05-06 18:33 | 50.10515 | 14.26290 | 1172 ft | 15 kts | 304° |
| 2026-05-06 18:33 | 50.10534 | 14.26129 | 1174 ft | 15 kts | 258° |
| 2026-05-06 18:33 | 50.10517 | 14.25987 | 1170 ft | 12 kts | 265° |
| 2026-05-06 18:33 | 50.10549 | 14.25867 | 1172 ft | 15 kts | 303° |
| 2026-05-06 18:34 | 50.10608 | 14.25723 | 1174 ft | 16 kts | 298° |
| 2026-05-06 18:34 | 50.10645 | 14.25602 | 1173 ft | 10 kts | 275° |
| 2026-05-06 18:34 | 50.10612 | 14.25520 | 1174 ft | 8 kts | 234° |
| 2026-05-06 18:34 | 50.10594 | 14.25449 | 1173 ft | 6 kts | 259° |
| 2026-05-06 18:35 | 50.10586 | 14.25382 | 1172 ft | 6 kts | 259° |
| 2026-05-06 18:35 | 50.10583 | 14.25360 | 1172 ft | 0 kts | 259° |
| 2026-05-06 18:45 | 50.10583 | 14.25359 | 1146 ft | 1 kts | 259° |
| 2026-05-06 18:45 | 50.10576 | 14.25298 | 1172 ft | 9 kts | 259° |
| 2026-05-06 18:45 | 50.10574 | 14.25282 | 1169 ft | 0 kts | 259° |
| 2026-05-06 18:46 | 50.10573 | 14.25275 | 1168 ft | 3 kts | 259° |
| 2026-05-06 18:46 | 50.10550 | 14.25177 | 1166 ft | 13 kts | 223° |
| 2026-05-06 18:47 | 50.10485 | 14.25192 | 1169 ft | 8 kts | 139° |
| 2026-05-06 18:47 | 50.10455 | 14.25253 | 1174 ft | 10 kts | 127° |
| 2026-05-06 18:47 | 50.10281 | 14.25612 | 1183 ft | 78 kts | 127° |
| 2026-05-06 18:47 | 50.09829 | 14.26546 | 1205 ft | 135 kts | 127° |
| 2026-05-06 18:48 | 50.09194 | 14.27848 | 1529 ft | 150 kts | 127° |
| 2026-05-06 18:48 | 50.08534 | 14.29162 | 2079 ft | 159 kts | 127° |
| 2026-05-06 18:48 | 50.07827 | 14.30565 | 2486 ft | 172 kts | 125° |
| 2026-05-06 18:48 | 50.07044 | 14.32202 | 2609 ft | 202 kts | 125° |
| 2026-05-06 18:49 | 50.06156 | 14.34066 | 2851 ft | 227 kts | 126° |
| 2026-05-06 18:49 | 50.05159 | 14.36145 | 3198 ft | 251 kts | 127° |
| 2026-05-06 18:49 | 50.04080 | 14.38384 | 3821 ft | 263 kts | 127° |
| 2026-05-06 18:49 | 50.02972 | 14.40675 | 4650 ft | 268 kts | 128° |
| 2026-05-06 18:50 | 50.01839 | 14.43010 | 5453 ft | 271 kts | 129° |
| 2026-05-06 18:50 | 50.00735 | 14.45400 | 6302 ft | 276 kts | 121° |
| 2026-05-06 18:50 | 50.00213 | 14.48307 | 7038 ft | 288 kts | 92° |
| 2026-05-06 18:50 | 50.00677 | 14.51364 | 7754 ft | 298 kts | 62° |
| 2026-05-06 18:51 | 50.02067 | 14.53768 | 8466 ft | 304 kts | 37° |
| 2026-05-06 18:51 | 50.03775 | 14.55742 | 9227 ft | 308 kts | 35° |
| 2026-05-06 18:51 | 50.05520 | 14.57730 | 9940 ft | 314 kts | 35° |
| 2026-05-06 18:51 | 50.07317 | 14.59773 | 10206 ft | 335 kts | 35° |
| 2026-05-06 18:52 | 50.09376 | 14.61792 | 10493 ft | 353 kts | 23° |
| 2026-05-06 18:52 | 50.11708 | 14.63032 | 11086 ft | 357 kts | 9° |
| 2026-05-06 18:52 | 50.14175 | 14.63362 | 11766 ft | 356 kts | 353° |
| 2026-05-06 18:52 | 50.16548 | 14.62568 | 12443 ft | 353 kts | 334° |
| 2026-05-06 18:53 | 50.18646 | 14.60643 | 13130 ft | 350 kts | 317° |
| 2026-05-06 18:53 | 50.20550 | 14.58245 | 13794 ft | 353 kts | 317° |
| 2026-05-06 18:53 | 50.22459 | 14.55811 | 14387 ft | 356 kts | 316° |
| 2026-05-06 18:53 | 50.24389 | 14.53339 | 14996 ft | 360 kts | 316° |
| 2026-05-06 18:54 | 50.26329 | 14.50856 | 15573 ft | 364 kts | 316° |
| 2026-05-06 18:54 | 50.28303 | 14.48327 | 16160 ft | 367 kts | 316° |
| 2026-05-06 18:54 | 50.30294 | 14.45786 | 16737 ft | 371 kts | 316° |
| 2026-05-06 18:54 | 50.32306 | 14.43228 | 17303 ft | 375 kts | 316° |
| 2026-05-06 18:55 | 50.34336 | 14.40639 | 17892 ft | 378 kts | 317° |
| 2026-05-06 18:55 | 50.36390 | 14.38009 | 18396 ft | 382 kts | 316° |
| 2026-05-06 18:55 | 50.38453 | 14.35363 | 18885 ft | 385 kts | 316° |
| 2026-05-06 18:55 | 50.40535 | 14.32691 | 19383 ft | 389 kts | 316° |
| 2026-05-06 18:56 | 50.42636 | 14.29997 | 19881 ft | 392 kts | 316° |
| 2026-05-06 18:56 | 50.44755 | 14.27276 | 20389 ft | 395 kts | 316° |
| 2026-05-06 18:56 | 50.46888 | 14.24527 | 20874 ft | 398 kts | 316° |
| 2026-05-06 18:56 | 50.49040 | 14.21748 | 21367 ft | 402 kts | 316° |
| 2026-05-06 18:57 | 50.51228 | 14.18991 | 21854 ft | 407 kts | 320° |
| 2026-05-06 18:57 | 50.53715 | 14.16744 | 22326 ft | 416 kts | 332° |
| 2026-05-06 18:57 | 50.56484 | 14.15283 | 22801 ft | 425 kts | 344° |
| 2026-05-06 18:57 | 50.59439 | 14.14690 | 23264 ft | 433 kts | 356° |
| 2026-05-06 18:58 | 50.62458 | 14.15037 | 23631 ft | 438 kts | 7° |
| 2026-05-06 18:58 | 50.65480 | 14.15768 | 23737 ft | 439 kts | 7° |
| 2026-05-06 18:58 | 50.68494 | 14.16505 | 23779 ft | 439 kts | 7° |
| 2026-05-06 18:58 | 50.71512 | 14.17242 | 23781 ft | 439 kts | 7° |
| 2026-05-06 18:59 | 50.74534 | 14.17976 | 23777 ft | 439 kts | 7° |
| 2026-05-06 18:59 | 50.77555 | 14.18703 | 23880 ft | 441 kts | 7° |
| 2026-05-06 18:59 | 50.80599 | 14.19430 | 24311 ft | 443 kts | 6° |
| 2026-05-06 18:59 | 50.83668 | 14.19731 | 24722 ft | 440 kts | 352° |
| 2026-05-06 19:00 | 50.86634 | 14.18801 | 25110 ft | 434 kts | 336° |
| 2026-05-06 19:00 | 50.89298 | 14.16673 | 25474 ft | 427 kts | 321° |
| 2026-05-06 19:00 | 50.91738 | 14.13976 | 25829 ft | 429 kts | 320° |
| 2026-05-06 19:00 | 50.93362 | 14.12173 | 26068 ft | 430 kts | 320° |
| 2026-05-06 19:01 | 50.96656 | 14.08530 | 26552 ft | 433 kts | 320° |
| 2026-05-06 19:01 | 50.99135 | 14.05789 | 26878 ft | 436 kts | 320° |
| 2026-05-06 19:01 | 51.01626 | 14.03029 | 27213 ft | 438 kts | 320° |
| 2026-05-06 19:01 | 51.04132 | 14.00254 | 27541 ft | 440 kts | 320° |
| 2026-05-06 19:02 | 51.06651 | 13.97466 | 27874 ft | 442 kts | 320° |
| 2026-05-06 19:02 | 51.09185 | 13.94665 | 28192 ft | 444 kts | 320° |
| 2026-05-06 19:02 | 51.11724 | 13.91856 | 28504 ft | 446 kts | 320° |
| 2026-05-06 19:02 | 51.14273 | 13.89026 | 28812 ft | 448 kts | 320° |
| 2026-05-06 19:03 | 51.16828 | 13.86177 | 29112 ft | 449 kts | 320° |
| 2026-05-06 19:03 | 51.19392 | 13.83309 | 29403 ft | 451 kts | 320° |
| 2026-05-06 19:03 | 51.21965 | 13.80424 | 29688 ft | 453 kts | 320° |
| 2026-05-06 19:03 | 51.24518 | 13.77560 | 29949 ft | 455 kts | 319° |
| 2026-05-06 19:04 | 51.27147 | 13.74610 | 30183 ft | 457 kts | 320° |
| 2026-05-06 19:04 | 51.29719 | 13.71729 | 30411 ft | 458 kts | 320° |
| 2026-05-06 19:04 | 51.32332 | 13.68801 | 30638 ft | 459 kts | 319° |
| 2026-05-06 19:04 | 51.34947 | 13.65862 | 30885 ft | 460 kts | 319° |
| 2026-05-06 19:05 | 51.37562 | 13.62917 | 31197 ft | 459 kts | 319° |
| 2026-05-06 19:05 | 51.40179 | 13.59970 | 31512 ft | 458 kts | 319° |
| 2026-05-06 19:05 | 51.42778 | 13.57040 | 31824 ft | 457 kts | 319° |
| 2026-05-06 19:05 | 51.45375 | 13.54104 | 32166 ft | 455 kts | 319° |
| 2026-05-06 19:06 | 51.47952 | 13.51184 | 32549 ft | 452 kts | 319° |
| 2026-05-06 19:06 | 51.50515 | 13.48277 | 32912 ft | 450 kts | 319° |
| 2026-05-06 19:06 | 51.53070 | 13.45373 | 33231 ft | 450 kts | 319° |
| 2026-05-06 19:06 | 51.55620 | 13.42469 | 33515 ft | 449 kts | 318° |
| 2026-05-06 19:07 | 51.58167 | 13.39562 | 33753 ft | 449 kts | 318° |
| 2026-05-06 19:07 | 51.62260 | 13.34624 | 33806 ft | 437 kts | 315° |
| 2026-05-06 19:08 | 51.66928 | 13.28406 | 33809 ft | 433 kts | 313° |
| 2026-05-06 19:08 | 51.71532 | 13.22136 | 33810 ft | 433 kts | 314° |
| 2026-05-06 19:09 | 51.76184 | 13.15926 | 33806 ft | 435 kts | 315° |
| 2026-05-06 19:09 | 51.80873 | 13.09732 | 33801 ft | 436 kts | 315° |
| 2026-05-06 19:10 | 51.85578 | 13.03511 | 33789 ft | 437 kts | 315° |
| 2026-05-06 19:10 | 51.90281 | 12.97261 | 33787 ft | 438 kts | 315° |
| 2026-05-06 19:11 | 51.94979 | 12.90988 | 33785 ft | 438 kts | 315° |
| 2026-05-06 19:11 | 51.99668 | 12.84688 | 33792 ft | 437 kts | 314° |
| 2026-05-06 19:12 | 52.04351 | 12.78387 | 33815 ft | 437 kts | 315° |
| 2026-05-06 19:12 | 52.09029 | 12.72082 | 33829 ft | 436 kts | 315° |
| 2026-05-06 19:13 | 52.13661 | 12.65820 | 33829 ft | 436 kts | 315° |
| 2026-05-06 19:13 | 52.18315 | 12.59510 | 33827 ft | 435 kts | 315° |
| 2026-05-06 19:14 | 52.22968 | 12.53186 | 33821 ft | 435 kts | 315° |
| 2026-05-06 19:14 | 52.27615 | 12.46850 | 33824 ft | 435 kts | 315° |
| 2026-05-06 19:15 | 52.32255 | 12.40503 | 33847 ft | 435 kts | 315° |
| 2026-05-06 19:15 | 52.36889 | 12.34169 | 33857 ft | 434 kts | 315° |
| 2026-05-06 19:16 | 52.41506 | 12.27815 | 33851 ft | 433 kts | 315° |
| 2026-05-06 19:16 | 52.46114 | 12.21454 | 33766 ft | 432 kts | 315° |
| 2026-05-06 19:16 | 52.48401 | 12.18297 | 33318 ft | 427 kts | 315° |
| 2026-05-06 19:17 | 52.50661 | 12.15176 | 32771 ft | 423 kts | 315° |
| 2026-05-06 19:17 | 52.52905 | 12.12073 | 32234 ft | 420 kts | 315° |
| 2026-05-06 19:17 | 52.55130 | 12.08988 | 31715 ft | 417 kts | 315° |
| 2026-05-06 19:17 | 52.57337 | 12.05920 | 31219 ft | 414 kts | 314° |
| 2026-05-06 19:18 | 52.59531 | 12.02872 | 30716 ft | 412 kts | 314° |
| 2026-05-06 19:18 | 52.61713 | 11.99833 | 30219 ft | 409 kts | 314° |
| 2026-05-06 19:18 | 52.63877 | 11.96813 | 29700 ft | 407 kts | 314° |
| 2026-05-06 19:18 | 52.66059 | 11.93760 | 29140 ft | 419 kts | 314° |
| 2026-05-06 19:19 | 52.68293 | 11.90628 | 28581 ft | 422 kts | 314° |
| 2026-05-06 19:19 | 52.70532 | 11.87496 | 28032 ft | 420 kts | 314° |
| 2026-05-06 19:19 | 52.72755 | 11.84389 | 27487 ft | 417 kts | 314° |
| 2026-05-06 19:19 | 52.74958 | 11.81306 | 26960 ft | 414 kts | 314° |
| 2026-05-06 19:20 | 52.77142 | 11.78243 | 26445 ft | 410 kts | 314° |
| 2026-05-06 19:20 | 52.79304 | 11.75199 | 25942 ft | 407 kts | 314° |
| 2026-05-06 19:20 | 52.81448 | 11.72171 | 25436 ft | 403 kts | 315° |
| 2026-05-06 19:20 | 52.83569 | 11.69169 | 24943 ft | 400 kts | 315° |
| 2026-05-06 19:21 | 52.85675 | 11.66180 | 24471 ft | 397 kts | 315° |
| 2026-05-06 19:21 | 52.87739 | 11.63253 | 24017 ft | 394 kts | 316° |
| 2026-05-06 19:21 | 52.89810 | 11.60316 | 23846 ft | 392 kts | 316° |
| 2026-05-06 19:21 | 52.91883 | 11.57379 | 23776 ft | 393 kts | 316° |
| 2026-05-06 19:22 | 52.94008 | 11.54542 | 23539 ft | 392 kts | 319° |
| 2026-05-06 19:22 | 52.96197 | 11.51834 | 23279 ft | 392 kts | 320° |
| 2026-05-06 19:22 | 52.98412 | 11.49203 | 23000 ft | 391 kts | 321° |
| 2026-05-06 19:22 | 53.00628 | 11.46600 | 22727 ft | 389 kts | 321° |
| 2026-05-06 19:23 | 53.02824 | 11.44000 | 22460 ft | 387 kts | 321° |
| 2026-05-06 19:23 | 53.04997 | 11.41392 | 22189 ft | 385 kts | 320° |
| 2026-05-06 19:23 | 53.07162 | 11.38762 | 21922 ft | 384 kts | 320° |
| 2026-05-06 19:23 | 53.09312 | 11.36127 | 21656 ft | 383 kts | 320° |
| 2026-05-06 19:24 | 53.11451 | 11.33493 | 21391 ft | 381 kts | 320° |
| 2026-05-06 19:24 | 53.13579 | 11.30867 | 21130 ft | 380 kts | 320° |
| 2026-05-06 19:24 | 53.15698 | 11.28251 | 20879 ft | 379 kts | 320° |
| 2026-05-06 19:24 | 53.17816 | 11.25641 | 20623 ft | 378 kts | 320° |
| 2026-05-06 19:25 | 53.19933 | 11.23036 | 20365 ft | 377 kts | 320° |
| 2026-05-06 19:25 | 53.22039 | 11.20439 | 20026 ft | 376 kts | 320° |
| 2026-05-06 19:25 | 53.24137 | 11.17847 | 19567 ft | 374 kts | 320° |
| 2026-05-06 19:25 | 53.26220 | 11.15270 | 19094 ft | 372 kts | 320° |
| 2026-05-06 19:26 | 53.28291 | 11.12706 | 18650 ft | 370 kts | 320° |
| 2026-05-06 19:26 | 53.30351 | 11.10153 | 18199 ft | 368 kts | 320° |
| 2026-05-06 19:26 | 53.32399 | 11.07607 | 17709 ft | 365 kts | 320° |
| 2026-05-06 19:26 | 53.34428 | 11.05079 | 17276 ft | 362 kts | 320° |
| 2026-05-06 19:27 | 53.36442 | 11.02569 | 16837 ft | 359 kts | 320° |
| 2026-05-06 19:27 | 53.38440 | 11.00078 | 16408 ft | 357 kts | 320° |
| 2026-05-06 19:27 | 53.40424 | 10.97605 | 15983 ft | 354 kts | 320° |
| 2026-05-06 19:27 | 53.42387 | 10.95155 | 15568 ft | 352 kts | 320° |
| 2026-05-06 19:28 | 53.44343 | 10.92707 | 15151 ft | 349 kts | 320° |
| 2026-05-06 19:28 | 53.46258 | 10.90308 | 14751 ft | 347 kts | 320° |
| 2026-05-06 19:28 | 53.48128 | 10.87789 | 14422 ft | 343 kts | 312° |
| 2026-05-06 19:28 | 53.49503 | 10.84566 | 14193 ft | 339 kts | 293° |
| 2026-05-06 19:29 | 53.50167 | 10.80810 | 13956 ft | 335 kts | 274° |
| 2026-05-06 19:29 | 53.50090 | 10.76925 | 13714 ft | 332 kts | 261° |
| 2026-05-06 19:29 | 53.49781 | 10.73081 | 13448 ft | 332 kts | 261° |
| 2026-05-06 19:29 | 53.49464 | 10.69248 | 13179 ft | 331 kts | 261° |
| 2026-05-06 19:30 | 53.49144 | 10.65422 | 12909 ft | 330 kts | 261° |
| 2026-05-06 19:30 | 53.48830 | 10.61641 | 12642 ft | 323 kts | 261° |
| 2026-05-06 19:30 | 53.48522 | 10.57942 | 12382 ft | 318 kts | 261° |
| 2026-05-06 19:30 | 53.48213 | 10.54277 | 12121 ft | 317 kts | 261° |
| 2026-05-06 19:31 | 53.47906 | 10.50630 | 11863 ft | 315 kts | 260° |
| 2026-05-06 19:31 | 53.47600 | 10.46989 | 11605 ft | 315 kts | 261° |
| 2026-05-06 19:31 | 53.46993 | 10.39708 | 11097 ft | 315 kts | 261° |
| 2026-05-06 19:32 | 53.46689 | 10.36074 | 10846 ft | 314 kts | 261° |
| 2026-05-06 19:32 | 53.46385 | 10.32472 | 10595 ft | 317 kts | 262° |
| 2026-05-06 19:32 | 53.46077 | 10.28850 | 10361 ft | 310 kts | 263° |
| 2026-05-06 19:32 | 53.45773 | 10.25317 | 10114 ft | 303 kts | 262° |
| 2026-05-06 19:33 | 53.45475 | 10.21852 | 9889 ft | 297 kts | 263° |
| 2026-05-06 19:33 | 53.45181 | 10.18436 | 9778 ft | 295 kts | 262° |
| 2026-05-06 19:33 | 53.44888 | 10.15042 | 9644 ft | 291 kts | 262° |
| 2026-05-06 19:33 | 53.44600 | 10.11741 | 9508 ft | 281 kts | 262° |
| 2026-05-06 19:34 | 53.44320 | 10.08559 | 9371 ft | 271 kts | 262° |
| 2026-05-06 19:34 | 53.44049 | 10.05482 | 9241 ft | 263 kts | 263° |
| 2026-05-06 19:34 | 53.43784 | 10.02463 | 9106 ft | 260 kts | 262° |
| 2026-05-06 19:34 | 53.43522 | 9.99480 | 8954 ft | 258 kts | 262° |
| 2026-05-06 19:35 | 53.43145 | 9.96540 | 8761 ft | 260 kts | 249° |
| 2026-05-06 19:35 | 53.42426 | 9.93786 | 8498 ft | 257 kts | 245° |
| 2026-05-06 19:35 | 53.41647 | 9.91094 | 8237 ft | 256 kts | 245° |
| 2026-05-06 19:35 | 53.40861 | 9.88416 | 7978 ft | 256 kts | 244° |
| 2026-05-06 19:36 | 53.40075 | 9.85752 | 7727 ft | 255 kts | 244° |
| 2026-05-06 19:36 | 53.39284 | 9.83089 | 7477 ft | 255 kts | 244° |
| 2026-05-06 19:36 | 53.38498 | 9.80441 | 7220 ft | 253 kts | 244° |
| 2026-05-06 19:36 | 53.37716 | 9.77805 | 6967 ft | 253 kts | 244° |
| 2026-05-06 19:37 | 53.36937 | 9.75184 | 6724 ft | 251 kts | 244° |
| 2026-05-06 19:37 | 53.36160 | 9.72574 | 6478 ft | 251 kts | 244° |
| 2026-05-06 19:37 | 53.35380 | 9.69965 | 6229 ft | 250 kts | 244° |
| 2026-05-06 19:37 | 53.34866 | 9.68244 | 6061 ft | 250 kts | 244° |
| 2026-05-06 19:38 | 53.33836 | 9.64761 | 5702 ft | 249 kts | 244° |
| 2026-05-06 19:38 | 53.33074 | 9.62156 | 5443 ft | 249 kts | 244° |
| 2026-05-06 19:38 | 53.32318 | 9.59557 | 5187 ft | 248 kts | 244° |
| 2026-05-06 19:38 | 53.31574 | 9.56957 | 5015 ft | 247 kts | 248° |
| 2026-05-06 19:39 | 53.31323 | 9.54165 | 4986 ft | 244 kts | 281° |
| 2026-05-06 19:39 | 53.31897 | 9.51539 | 4984 ft | 241 kts | 301° |
| 2026-05-06 19:39 | 53.32739 | 9.49106 | 4984 ft | 241 kts | 304° |
| 2026-05-06 19:39 | 53.33615 | 9.46707 | 4988 ft | 242 kts | 304° |
| 2026-05-06 19:40 | 53.34496 | 9.44314 | 4981 ft | 241 kts | 304° |
| 2026-05-06 19:40 | 53.35374 | 9.41924 | 4985 ft | 241 kts | 304° |
| 2026-05-06 19:40 | 53.36255 | 9.39532 | 4983 ft | 241 kts | 304° |
| 2026-05-06 19:40 | 53.37294 | 9.37368 | 4974 ft | 236 kts | 327° |
| 2026-05-06 19:41 | 53.38779 | 9.36379 | 4902 ft | 231 kts | 359° |
| 2026-05-06 19:41 | 53.40298 | 9.36850 | 4643 ft | 221 kts | 32° |
| 2026-05-06 19:41 | 53.41344 | 9.38641 | 4492 ft | 218 kts | 65° |
| 2026-05-06 19:41 | 53.41710 | 9.41065 | 4374 ft | 220 kts | 82° |
| 2026-05-06 19:42 | 53.41867 | 9.43616 | 4244 ft | 220 kts | 84° |
| 2026-05-06 19:42 | 53.41991 | 9.46170 | 4110 ft | 220 kts | 84° |
| 2026-05-06 19:42 | 53.42112 | 9.48722 | 4019 ft | 219 kts | 84° |
| 2026-05-06 19:42 | 53.42232 | 9.51264 | 3986 ft | 219 kts | 84° |
| 2026-05-06 19:43 | 53.42347 | 9.53811 | 3984 ft | 219 kts | 84° |
| 2026-05-06 19:43 | 53.42481 | 9.56355 | 3985 ft | 219 kts | 78° |
| 2026-05-06 19:43 | 53.43046 | 9.58692 | 3985 ft | 217 kts | 54° |
| 2026-05-06 19:43 | 53.44007 | 9.60659 | 4001 ft | 218 kts | 50° |
| 2026-05-06 19:44 | 53.44989 | 9.62597 | 4003 ft | 218 kts | 50° |
| 2026-05-06 19:44 | 53.45969 | 9.64545 | 4004 ft | 218 kts | 50° |
| 2026-05-06 19:44 | 53.46945 | 9.66492 | 4007 ft | 218 kts | 50° |
| 2026-05-06 19:44 | 53.47912 | 9.68423 | 4004 ft | 210 kts | 50° |
| 2026-05-06 19:45 | 53.48812 | 9.70221 | 4025 ft | 191 kts | 51° |
| 2026-05-06 19:45 | 53.49637 | 9.71871 | 3859 ft | 179 kts | 51° |
| 2026-05-06 19:45 | 53.50420 | 9.73438 | 3642 ft | 171 kts | 51° |
| 2026-05-06 19:45 | 53.51167 | 9.74933 | 3433 ft | 165 kts | 51° |
| 2026-05-06 19:46 | 53.51900 | 9.76402 | 3219 ft | 164 kts | 51° |
| 2026-05-06 19:46 | 53.52629 | 9.77863 | 2996 ft | 163 kts | 51° |
| 2026-05-06 19:46 | 53.53355 | 9.79320 | 2773 ft | 162 kts | 51° |
| 2026-05-06 19:46 | 53.54075 | 9.80765 | 2555 ft | 162 kts | 51° |
| 2026-05-06 19:47 | 53.54787 | 9.82195 | 2333 ft | 161 kts | 52° |
| 2026-05-06 19:47 | 53.55504 | 9.83635 | 2111 ft | 160 kts | 51° |
| 2026-05-06 19:47 | 53.56215 | 9.85064 | 1892 ft | 158 kts | 51° |
| 2026-05-06 19:47 | 53.56910 | 9.86462 | 1695 ft | 148 kts | 51° |
| 2026-05-06 19:48 | 53.57544 | 9.87737 | 1481 ft | 138 kts | 52° |
| 2026-05-06 19:48 | 53.58154 | 9.88965 | 1287 ft | 135 kts | 51° |
| 2026-05-06 19:48 | 53.58752 | 9.90170 | 1090 ft | 133 kts | 51° |
| 2026-05-06 19:48 | 53.59343 | 9.91365 | 909 ft | 132 kts | 50° |
| 2026-05-06 19:49 | 53.59940 | 9.92556 | 704 ft | 133 kts | 48° |
| 2026-05-06 19:49 | 53.60528 | 9.93744 | 544 ft | 131 kts | 49° |
| 2026-05-06 19:49 | 53.61124 | 9.94946 | 350 ft | 134 kts | 49° |
| 2026-05-06 19:49 | 53.61711 | 9.96139 | 172 ft | 132 kts | 49° |
| 2026-05-06 19:50 | 53.62284 | 9.97301 | 43 ft | 122 kts | 50° |
| 2026-05-06 19:50 | 53.62731 | 9.98198 | 43 ft | 75 kts | 50° |
| 2026-05-06 19:50 | 53.62955 | 9.98654 | 45 ft | 30 kts | 50° |
| 2026-05-06 19:50 | 53.63065 | 9.98890 | 46 ft | 24 kts | 63° |
| 2026-05-06 19:51 | 53.63090 | 9.99160 | 46 ft | 22 kts | 95° |
| 2026-05-06 19:51 | 53.63084 | 9.99269 | 47 ft | 13 kts | 95° |
| 2026-05-06 19:51 | 53.63089 | 9.99362 | 47 ft | 0 kts | 75° |
| 2026-05-06 19:52 | 53.63091 | 9.99372 | 47 ft | 5 kts | 73° |
| 2026-05-06 19:52 | 53.63111 | 9.99434 | 45 ft | 11 kts | 56° |
| 2026-05-06 19:53 | 53.63180 | 9.99587 | 47 ft | 13 kts | 50° |
| 2026-05-06 19:53 | 53.63227 | 9.99688 | 48 ft | 11 kts | 67° |
| 2026-05-06 19:53 | 53.63190 | 9.99789 | 48 ft | 11 kts | 150° |
| 2026-05-06 19:53 | 53.63129 | 9.99842 | 48 ft | 9 kts | 153° |
| 2026-05-06 19:54 | 53.63092 | 9.99874 | 48 ft | 8 kts | 153° |
| 2026-05-06 19:54 | 53.63044 | 9.99916 | 48 ft | 7 kts | 153° |
| 2026-05-06 19:54 | 53.63003 | 9.99951 | 48 ft | 6 kts | 153° |
| 2026-05-06 19:54 | 53.62956 | 9.99997 | 48 ft | 9 kts | 138° |
| 2026-05-06 19:55 | 53.62950 | 10.00080 | 48 ft | 7 kts | 64° |
| 2026-05-06 19:55 | 53.62951 | 10.00164 | 46 ft | 8 kts | 106° |
| 2026-05-06 19:55 | 53.62937 | 10.00236 | 46 ft | 5 kts | 108° |
| 2026-05-06 19:55 | 53.62929 | 10.00279 | 48 ft | 2 kts | 109° |
| 2026-05-06 19:56 | 53.62927 | 10.00291 | 48 ft | 0 kts | 108° |